sensor_id;sensor_type;location;lat;lon;timestamp;P1;durP1;ratioP1;P2;durP2;ratioP2
41061;SDS011;26812;42.662;23.352;2023-07-20T00:01:24;3.83;;;1.60;;
41061;SDS011;26812;42.662;23.352;2023-07-20T00:03:50;2.60;;;1.45;;
41061;SDS011;26812;42.662;23.352;2023-07-20T00:06:20;2.90;;;1.80;;
41061;SDS011;26812;42.662;23.352;2023-07-20T00:08:46;2.90;;;1.42;;
41061;SDS011;26812;42.662;23.352;2023-07-20T00:11:12;2.55;;;1.63;;
41061;SDS011;26812;42.662;23.352;2023-07-20T00:13:38;3.88;;;1.95;;
41061;SDS011;26812;42.662;23.352;2023-07-20T00:16:04;2.95;;;1.65;;
41061;SDS011;26812;42.662;23.352;2023-07-20T00:18:29;5.55;;;2.45;;
41061;SDS011;26812;42.662;23.352;2023-07-20T00:20:55;4.72;;;2.17;;
41061;SDS011;26812;42.662;23.352;2023-07-20T00:23:20;7.28;;;2.00;;
41061;SDS011;26812;42.662;23.352;2023-07-20T00:25:47;4.70;;;1.30;;
41061;SDS011;26812;42.662;23.352;2023-07-20T00:28:16;4.00;;;1.95;;
41061;SDS011;26812;42.662;23.352;2023-07-20T00:30:41;4.63;;;1.80;;
41061;SDS011;26812;42.662;23.352;2023-07-20T00:33:09;3.47;;;1.80;;
41061;SDS011;26812;42.662;23.352;2023-07-20T00:35:35;4.43;;;1.95;;
41061;SDS011;26812;42.662;23.352;2023-07-20T00:38:02;2.20;;;1.67;;
41061;SDS011;26812;42.662;23.352;2023-07-20T00:40:28;6.10;;;1.33;;
41061;SDS011;26812;42.662;23.352;2023-07-20T00:42:53;2.40;;;1.55;;
41061;SDS011;26812;42.662;23.352;2023-07-20T00:45:19;2.35;;;1.70;;
41061;SDS011;26812;42.662;23.352;2023-07-20T00:47:44;3.13;;;1.58;;
41061;SDS011;26812;42.662;23.352;2023-07-20T00:50:10;5.00;;;1.60;;
41061;SDS011;26812;42.662;23.352;2023-07-20T00:52:35;2.92;;;1.50;;
41061;SDS011;26812;42.662;23.352;2023-07-20T00:55:04;2.17;;;1.20;;
41061;SDS011;26812;42.662;23.352;2023-07-20T00:57:31;4.00;;;1.50;;
41061;SDS011;26812;42.662;23.352;2023-07-20T00:59:56;3.35;;;1.60;;
41061;SDS011;26812;42.662;23.352;2023-07-20T01:02:22;2.65;;;1.40;;
41061;SDS011;26812;42.662;23.352;2023-07-20T01:04:47;4.55;;;1.70;;
41061;SDS011;26812;42.662;23.352;2023-07-20T01:07:35;3.55;;;1.70;;
41061;SDS011;26812;42.662;23.352;2023-07-20T01:10:18;2.10;;;1.30;;
41061;SDS011;26812;42.662;23.352;2023-07-20T01:12:53;4.65;;;2.28;;
41061;SDS011;26812;42.662;23.352;2023-07-20T01:15:20;5.60;;;1.60;;
41061;SDS011;26812;42.662;23.352;2023-07-20T01:17:45;2.83;;;1.73;;
41061;SDS011;26812;42.662;23.352;2023-07-20T01:20:12;3.63;;;2.22;;
41061;SDS011;26812;42.662;23.352;2023-07-20T01:22:55;2.78;;;1.63;;
41061;SDS011;26812;42.662;23.352;2023-07-20T01:28:35;2.25;;;1.42;;
41061;SDS011;26812;42.662;23.352;2023-07-20T01:31:34;2.90;;;1.67;;
41061;SDS011;26812;42.662;23.352;2023-07-20T01:34:02;4.63;;;1.90;;
41061;SDS011;26812;42.662;23.352;2023-07-20T01:36:32;5.90;;;2.13;;
41061;SDS011;26812;42.662;23.352;2023-07-20T01:39:00;5.03;;;1.95;;
41061;SDS011;26812;42.662;23.352;2023-07-20T01:41:26;2.20;;;1.33;;
41061;SDS011;26812;42.662;23.352;2023-07-20T01:43:52;3.70;;;2.10;;
41061;SDS011;26812;42.662;23.352;2023-07-20T01:46:17;3.42;;;1.70;;
41061;SDS011;26812;42.662;23.352;2023-07-20T01:48:42;5.72;;;2.25;;
41061;SDS011;26812;42.662;23.352;2023-07-20T01:51:08;3.80;;;1.80;;
41061;SDS011;26812;42.662;23.352;2023-07-20T01:53:33;2.80;;;1.58;;
41061;SDS011;26812;42.662;23.352;2023-07-20T01:55:59;3.22;;;1.77;;
41061;SDS011;26812;42.662;23.352;2023-07-20T01:58:24;5.38;;;1.65;;
41061;SDS011;26812;42.662;23.352;2023-07-20T02:00:50;2.10;;;1.73;;
41061;SDS011;26812;42.662;23.352;2023-07-20T02:03:15;4.10;;;2.20;;
41061;SDS011;26812;42.662;23.352;2023-07-20T02:05:44;6.85;;;2.72;;
41061;SDS011;26812;42.662;23.352;2023-07-20T02:08:09;3.78;;;2.13;;
41061;SDS011;26812;42.662;23.352;2023-07-20T02:10:35;6.57;;;2.10;;
41061;SDS011;26812;42.662;23.352;2023-07-20T02:13:01;3.63;;;2.13;;
41061;SDS011;26812;42.662;23.352;2023-07-20T02:15:26;2.40;;;1.58;;
41061;SDS011;26812;42.662;23.352;2023-07-20T02:17:52;3.22;;;1.52;;
41061;SDS011;26812;42.662;23.352;2023-07-20T02:20:18;4.18;;;2.47;;
41061;SDS011;26812;42.662;23.352;2023-07-20T02:22:44;7.65;;;2.13;;
41061;SDS011;26812;42.662;23.352;2023-07-20T02:25:09;3.67;;;1.98;;
41061;SDS011;26812;42.662;23.352;2023-07-20T02:27:35;4.25;;;2.10;;
41061;SDS011;26812;42.662;23.352;2023-07-20T02:30:07;2.70;;;1.83;;
41061;SDS011;26812;42.662;23.352;2023-07-20T02:32:34;7.03;;;2.20;;
41061;SDS011;26812;42.662;23.352;2023-07-20T02:34:59;2.38;;;2.17;;
41061;SDS011;26812;42.662;23.352;2023-07-20T02:37:25;3.03;;;2.03;;
41061;SDS011;26812;42.662;23.352;2023-07-20T02:39:50;6.07;;;2.17;;
41061;SDS011;26812;42.662;23.352;2023-07-20T02:42:16;3.60;;;2.08;;
41061;SDS011;26812;42.662;23.352;2023-07-20T02:44:41;2.00;;;1.67;;
41061;SDS011;26812;42.662;23.352;2023-07-20T02:47:06;3.38;;;2.45;;
41061;SDS011;26812;42.662;23.352;2023-07-20T02:49:32;4.97;;;2.10;;
41061;SDS011;26812;42.662;23.352;2023-07-20T02:51:57;5.03;;;2.60;;
41061;SDS011;26812;42.662;23.352;2023-07-20T02:54:23;3.20;;;2.20;;
41061;SDS011;26812;42.662;23.352;2023-07-20T02:56:48;4.18;;;2.28;;
41061;SDS011;26812;42.662;23.352;2023-07-20T02:59:14;4.47;;;2.45;;
41061;SDS011;26812;42.662;23.352;2023-07-20T03:01:39;3.65;;;1.90;;
41061;SDS011;26812;42.662;23.352;2023-07-20T03:04:07;4.28;;;2.30;;
41061;SDS011;26812;42.662;23.352;2023-07-20T03:06:35;2.13;;;1.88;;
41061;SDS011;26812;42.662;23.352;2023-07-20T03:09:01;3.92;;;2.10;;
41061;SDS011;26812;42.662;23.352;2023-07-20T03:11:26;4.38;;;2.42;;
41061;SDS011;26812;42.662;23.352;2023-07-20T03:13:51;3.33;;;1.85;;
41061;SDS011;26812;42.662;23.352;2023-07-20T03:16:17;2.75;;;1.92;;
41061;SDS011;26812;42.662;23.352;2023-07-20T03:18:44;5.53;;;2.00;;
41061;SDS011;26812;42.662;23.352;2023-07-20T03:21:10;5.28;;;2.03;;
41061;SDS011;26812;42.662;23.352;2023-07-20T03:23:36;3.08;;;2.08;;
41061;SDS011;26812;42.662;23.352;2023-07-20T03:26:02;3.95;;;2.40;;
41061;SDS011;26812;42.662;23.352;2023-07-20T03:28:28;3.55;;;2.38;;
41061;SDS011;26812;42.662;23.352;2023-07-20T03:30:54;13.05;;;3.60;;
41061;SDS011;26812;42.662;23.352;2023-07-20T03:33:27;5.50;;;2.80;;
41061;SDS011;26812;42.662;23.352;2023-07-20T03:35:54;5.25;;;2.72;;
41061;SDS011;26812;42.662;23.352;2023-07-20T03:38:20;3.83;;;2.00;;
41061;SDS011;26812;42.662;23.352;2023-07-20T03:40:52;5.53;;;2.25;;
41061;SDS011;26812;42.662;23.352;2023-07-20T03:45:48;5.18;;;2.03;;
41061;SDS011;26812;42.662;23.352;2023-07-20T03:48:15;2.92;;;2.10;;
41061;SDS011;26812;42.662;23.352;2023-07-20T03:50:41;3.50;;;2.00;;
41061;SDS011;26812;42.662;23.352;2023-07-20T03:53:07;7.55;;;2.30;;
41061;SDS011;26812;42.662;23.352;2023-07-20T03:55:32;7.18;;;2.30;;
41061;SDS011;26812;42.662;23.352;2023-07-20T03:57:58;4.45;;;2.50;;
41061;SDS011;26812;42.662;23.352;2023-07-20T04:00:23;5.50;;;2.72;;
41061;SDS011;26812;42.662;23.352;2023-07-20T04:02:49;4.68;;;2.30;;
41061;SDS011;26812;42.662;23.352;2023-07-20T04:05:14;3.90;;;2.05;;
41061;SDS011;26812;42.662;23.352;2023-07-20T04:07:40;9.27;;;2.58;;
41061;SDS011;26812;42.662;23.352;2023-07-20T04:10:05;4.72;;;2.30;;
41061;SDS011;26812;42.662;23.352;2023-07-20T04:12:31;4.93;;;2.33;;
41061;SDS011;26812;42.662;23.352;2023-07-20T04:14:56;3.85;;;2.20;;
41061;SDS011;26812;42.662;23.352;2023-07-20T04:17:22;5.07;;;2.30;;
41061;SDS011;26812;42.662;23.352;2023-07-20T04:19:47;4.50;;;2.22;;
41061;SDS011;26812;42.662;23.352;2023-07-20T04:22:13;5.07;;;2.53;;
41061;SDS011;26812;42.662;23.352;2023-07-20T04:24:40;6.82;;;2.60;;
41061;SDS011;26812;42.662;23.352;2023-07-20T04:27:08;5.10;;;2.60;;
41061;SDS011;26812;42.662;23.352;2023-07-20T04:29:34;3.70;;;2.03;;
41061;SDS011;26812;42.662;23.352;2023-07-20T04:31:59;2.63;;;1.95;;
41061;SDS011;26812;42.662;23.352;2023-07-20T04:34:25;3.65;;;2.60;;
41061;SDS011;26812;42.662;23.352;2023-07-20T04:36:50;4.43;;;2.30;;
41061;SDS011;26812;42.662;23.352;2023-07-20T04:39:15;5.32;;;2.47;;
41061;SDS011;26812;42.662;23.352;2023-07-20T04:41:41;3.67;;;2.20;;
41061;SDS011;26812;42.662;23.352;2023-07-20T04:44:06;2.50;;;1.85;;
41061;SDS011;26812;42.662;23.352;2023-07-20T04:46:32;7.82;;;2.30;;
41061;SDS011;26812;42.662;23.352;2023-07-20T04:48:57;4.00;;;2.40;;
41061;SDS011;26812;42.662;23.352;2023-07-20T04:51:22;5.15;;;2.55;;
41061;SDS011;26812;42.662;23.352;2023-07-20T04:53:48;3.72;;;2.42;;
41061;SDS011;26812;42.662;23.352;2023-07-20T04:56:14;5.03;;;2.42;;
41061;SDS011;26812;42.662;23.352;2023-07-20T04:58:39;5.57;;;2.15;;
41061;SDS011;26812;42.662;23.352;2023-07-20T05:01:04;2.80;;;2.10;;
41061;SDS011;26812;42.662;23.352;2023-07-20T05:03:30;3.85;;;2.38;;
41061;SDS011;26812;42.662;23.352;2023-07-20T05:05:55;6.82;;;2.90;;
41061;SDS011;26812;42.662;23.352;2023-07-20T05:08:22;4.25;;;2.53;;
41061;SDS011;26812;42.662;23.352;2023-07-20T05:10:47;6.70;;;4.05;;
41061;SDS011;26812;42.662;23.352;2023-07-20T05:13:13;6.25;;;2.65;;
41061;SDS011;26812;42.662;23.352;2023-07-20T05:15:38;5.47;;;3.10;;
41061;SDS011;26812;42.662;23.352;2023-07-20T05:18:04;5.60;;;2.70;;
41061;SDS011;26812;42.662;23.352;2023-07-20T05:20:29;8.48;;;3.00;;
41061;SDS011;26812;42.662;23.352;2023-07-20T05:22:56;5.13;;;2.70;;
41061;SDS011;26812;42.662;23.352;2023-07-20T05:25:22;7.43;;;2.97;;
41061;SDS011;26812;42.662;23.352;2023-07-20T05:27:47;7.28;;;2.67;;
41061;SDS011;26812;42.662;23.352;2023-07-20T05:30:13;6.93;;;3.55;;
41061;SDS011;26812;42.662;23.352;2023-07-20T05:32:38;5.53;;;2.88;;
41061;SDS011;26812;42.662;23.352;2023-07-20T05:35:04;5.90;;;3.25;;
41061;SDS011;26812;42.662;23.352;2023-07-20T05:37:30;2.70;;;2.22;;
41061;SDS011;26812;42.662;23.352;2023-07-20T05:39:55;2.88;;;2.22;;
41061;SDS011;26812;42.662;23.352;2023-07-20T05:42:21;4.18;;;2.13;;
41061;SDS011;26812;42.662;23.352;2023-07-20T05:44:46;4.97;;;2.55;;
41061;SDS011;26812;42.662;23.352;2023-07-20T05:47:13;5.60;;;2.72;;
41061;SDS011;26812;42.662;23.352;2023-07-20T05:49:38;6.97;;;2.50;;
41061;SDS011;26812;42.662;23.352;2023-07-20T05:52:04;3.35;;;2.33;;
41061;SDS011;26812;42.662;23.352;2023-07-20T05:54:29;5.78;;;2.20;;
41061;SDS011;26812;42.662;23.352;2023-07-20T05:56:55;4.82;;;2.50;;
41061;SDS011;26812;42.662;23.352;2023-07-20T05:59:20;6.10;;;3.10;;
41061;SDS011;26812;42.662;23.352;2023-07-20T06:01:46;5.57;;;2.40;;
41061;SDS011;26812;42.662;23.352;2023-07-20T06:04:14;6.50;;;2.60;;
41061;SDS011;26812;42.662;23.352;2023-07-20T06:06:39;3.97;;;1.95;;
41061;SDS011;26812;42.662;23.352;2023-07-20T06:09:04;3.63;;;2.70;;
41061;SDS011;26812;42.662;23.352;2023-07-20T06:11:34;6.10;;;3.03;;
41061;SDS011;26812;42.662;23.352;2023-07-20T06:14:00;5.90;;;2.67;;
41061;SDS011;26812;42.662;23.352;2023-07-20T06:16:25;4.60;;;2.00;;
41061;SDS011;26812;42.662;23.352;2023-07-20T06:18:50;4.20;;;1.95;;
41061;SDS011;26812;42.662;23.352;2023-07-20T06:21:16;3.60;;;2.00;;
41061;SDS011;26812;42.662;23.352;2023-07-20T06:23:41;7.75;;;2.22;;
41061;SDS011;26812;42.662;23.352;2023-07-20T06:26:06;3.67;;;1.95;;
41061;SDS011;26812;42.662;23.352;2023-07-20T06:28:32;2.35;;;1.80;;
41061;SDS011;26812;42.662;23.352;2023-07-20T06:31:05;5.60;;;3.10;;
41061;SDS011;26812;42.662;23.352;2023-07-20T06:33:30;4.00;;;1.95;;
41061;SDS011;26812;42.662;23.352;2023-07-20T06:35:56;4.38;;;1.92;;
41061;SDS011;26812;42.662;23.352;2023-07-20T06:38:23;4.57;;;2.47;;
41061;SDS011;26812;42.662;23.352;2023-07-20T06:40:49;4.45;;;2.45;;
41061;SDS011;26812;42.662;23.352;2023-07-20T06:43:15;6.85;;;1.92;;
41061;SDS011;26812;42.662;23.352;2023-07-20T06:45:40;7.40;;;2.42;;
41061;SDS011;26812;42.662;23.352;2023-07-20T06:48:06;6.30;;;3.15;;
41061;SDS011;26812;42.662;23.352;2023-07-20T06:50:32;6.20;;;2.30;;
41061;SDS011;26812;42.662;23.352;2023-07-20T06:52:57;6.82;;;4.70;;
41061;SDS011;26812;42.662;23.352;2023-07-20T06:55:23;5.82;;;3.10;;
41061;SDS011;26812;42.662;23.352;2023-07-20T06:57:49;8.70;;;3.15;;
41061;SDS011;26812;42.662;23.352;2023-07-20T07:00:14;6.93;;;3.15;;
41061;SDS011;26812;42.662;23.352;2023-07-20T07:02:40;2.83;;;2.00;;
41061;SDS011;26812;42.662;23.352;2023-07-20T07:05:05;5.97;;;2.63;;
41061;SDS011;26812;42.662;23.352;2023-07-20T07:07:31;4.38;;;2.28;;
41061;SDS011;26812;42.662;23.352;2023-07-20T07:09:57;3.80;;;2.10;;
41061;SDS011;26812;42.662;23.352;2023-07-20T07:12:22;3.35;;;1.98;;
41061;SDS011;26812;42.662;23.352;2023-07-20T07:14:48;3.38;;;1.85;;
41061;SDS011;26812;42.662;23.352;2023-07-20T07:17:13;4.97;;;2.17;;
41061;SDS011;26812;42.662;23.352;2023-07-20T07:19:39;4.95;;;2.42;;
41061;SDS011;26812;42.662;23.352;2023-07-20T07:22:05;5.07;;;2.90;;
41061;SDS011;26812;42.662;23.352;2023-07-20T07:24:31;4.25;;;2.17;;
41061;SDS011;26812;42.662;23.352;2023-07-20T07:26:59;6.03;;;2.72;;
41061;SDS011;26812;42.662;23.352;2023-07-20T07:29:26;9.13;;;3.15;;
41061;SDS011;26812;42.662;23.352;2023-07-20T07:31:52;4.22;;;2.88;;
41061;SDS011;26812;42.662;23.352;2023-07-20T07:34:23;5.13;;;2.47;;
41061;SDS011;26812;42.662;23.352;2023-07-20T07:36:48;3.97;;;2.55;;
41061;SDS011;26812;42.662;23.352;2023-07-20T07:39:15;8.73;;;3.60;;
41061;SDS011;26812;42.662;23.352;2023-07-20T07:41:40;8.40;;;2.55;;
41061;SDS011;26812;42.662;23.352;2023-07-20T07:44:05;5.63;;;2.95;;
41061;SDS011;26812;42.662;23.352;2023-07-20T07:46:31;5.25;;;2.95;;
41061;SDS011;26812;42.662;23.352;2023-07-20T07:48:56;6.30;;;2.70;;
41061;SDS011;26812;42.662;23.352;2023-07-20T07:51:28;7.22;;;2.58;;
41061;SDS011;26812;42.662;23.352;2023-07-20T07:53:53;5.85;;;2.33;;
41061;SDS011;26812;42.662;23.352;2023-07-20T07:56:19;5.63;;;3.05;;
41061;SDS011;26812;42.662;23.352;2023-07-20T07:58:48;4.95;;;2.40;;
41061;SDS011;26812;42.662;23.352;2023-07-20T08:01:14;4.63;;;2.97;;
41061;SDS011;26812;42.662;23.352;2023-07-20T08:03:39;4.70;;;2.90;;
41061;SDS011;26812;42.662;23.352;2023-07-20T08:06:05;5.65;;;3.10;;
41061;SDS011;26812;42.662;23.352;2023-07-20T08:08:31;6.03;;;3.53;;
41061;SDS011;26812;42.662;23.352;2023-07-20T08:10:57;9.48;;;2.70;;
41061;SDS011;26812;42.662;23.352;2023-07-20T08:13:23;8.98;;;2.58;;
41061;SDS011;26812;42.662;23.352;2023-07-20T08:15:50;4.97;;;2.25;;
41061;SDS011;26812;42.662;23.352;2023-07-20T08:18:19;7.22;;;2.88;;
41061;SDS011;26812;42.662;23.352;2023-07-20T08:20:45;7.78;;;3.05;;
41061;SDS011;26812;42.662;23.352;2023-07-20T08:23:10;5.55;;;2.53;;
41061;SDS011;26812;42.662;23.352;2023-07-20T08:25:36;6.07;;;2.70;;
41061;SDS011;26812;42.662;23.352;2023-07-20T08:28:04;5.13;;;2.47;;
41061;SDS011;26812;42.662;23.352;2023-07-20T08:30:39;3.22;;;1.95;;
41061;SDS011;26812;42.662;23.352;2023-07-20T08:33:16;2.72;;;1.60;;
41061;SDS011;26812;42.662;23.352;2023-07-20T08:35:45;8.05;;;2.45;;
41061;SDS011;26812;42.662;23.352;2023-07-20T08:38:11;3.95;;;2.60;;
41061;SDS011;26812;42.662;23.352;2023-07-20T08:40:45;3.70;;;2.83;;
41061;SDS011;26812;42.662;23.352;2023-07-20T08:43:11;4.03;;;2.15;;
41061;SDS011;26812;42.662;23.352;2023-07-20T08:45:38;4.97;;;2.05;;
41061;SDS011;26812;42.662;23.352;2023-07-20T08:48:06;5.00;;;1.95;;
41061;SDS011;26812;42.662;23.352;2023-07-20T08:50:33;3.75;;;1.77;;
41061;SDS011;26812;42.662;23.352;2023-07-20T08:52:59;4.38;;;2.47;;
41061;SDS011;26812;42.662;23.352;2023-07-20T08:55:26;5.70;;;2.20;;
41061;SDS011;26812;42.662;23.352;2023-07-20T08:57:56;5.60;;;2.20;;
41061;SDS011;26812;42.662;23.352;2023-07-20T09:00:23;3.55;;;1.40;;
41061;SDS011;26812;42.662;23.352;2023-07-20T09:02:50;3.65;;;1.40;;
41061;SDS011;26812;42.662;23.352;2023-07-20T09:05:18;6.40;;;1.92;;
41061;SDS011;26812;42.662;23.352;2023-07-20T09:07:44;5.20;;;1.58;;
41061;SDS011;26812;42.662;23.352;2023-07-20T09:10:09;4.97;;;1.67;;
41061;SDS011;26812;42.662;23.352;2023-07-20T09:12:39;5.75;;;1.75;;
41061;SDS011;26812;42.662;23.352;2023-07-20T09:15:05;5.30;;;1.88;;
41061;SDS011;26812;42.662;23.352;2023-07-20T09:17:47;4.40;;;1.55;;
41061;SDS011;26812;42.662;23.352;2023-07-20T09:20:19;3.55;;;2.10;;
41061;SDS011;26812;42.662;23.352;2023-07-20T09:22:45;2.88;;;1.40;;
41061;SDS011;26812;42.662;23.352;2023-07-20T09:25:12;4.60;;;1.70;;
41061;SDS011;26812;42.662;23.352;2023-07-20T09:27:39;3.10;;;1.38;;
41061;SDS011;26812;42.662;23.352;2023-07-20T09:30:19;3.58;;;1.35;;
41061;SDS011;26812;42.662;23.352;2023-07-20T09:32:50;2.42;;;1.83;;
41061;SDS011;26812;42.662;23.352;2023-07-20T09:35:16;3.65;;;1.40;;
41061;SDS011;26812;42.662;23.352;2023-07-20T09:40:16;2.05;;;1.38;;
41061;SDS011;26812;42.662;23.352;2023-07-20T09:42:43;5.55;;;2.08;;
41061;SDS011;26812;42.662;23.352;2023-07-20T09:45:08;2.80;;;1.40;;
41061;SDS011;26812;42.662;23.352;2023-07-20T09:47:38;2.15;;;1.30;;
41061;SDS011;26812;42.662;23.352;2023-07-20T09:50:05;3.63;;;1.27;;
41061;SDS011;26812;42.662;23.352;2023-07-20T09:52:35;2.72;;;1.20;;
41061;SDS011;26812;42.662;23.352;2023-07-20T09:55:06;2.22;;;1.02;;
41061;SDS011;26812;42.662;23.352;2023-07-20T09:57:36;4.18;;;1.58;;
41061;SDS011;26812;42.662;23.352;2023-07-20T10:00:05;4.28;;;1.35;;
41061;SDS011;26812;42.662;23.352;2023-07-20T10:02:43;3.20;;;1.33;;
41061;SDS011;26812;42.662;23.352;2023-07-20T10:05:11;4.22;;;2.20;;
41061;SDS011;26812;42.662;23.352;2023-07-20T10:07:40;10.35;;;2.25;;
41061;SDS011;26812;42.662;23.352;2023-07-20T10:10:10;6.88;;;1.58;;
41061;SDS011;26812;42.662;23.352;2023-07-20T10:12:36;5.68;;;1.83;;
41061;SDS011;26812;42.662;23.352;2023-07-20T10:17:40;2.35;;;1.17;;
41061;SDS011;26812;42.662;23.352;2023-07-20T10:20:14;4.90;;;2.15;;
41061;SDS011;26812;42.662;23.352;2023-07-20T10:22:41;1.98;;;1.23;;
41061;SDS011;26812;42.662;23.352;2023-07-20T10:25:10;4.22;;;1.30;;
41061;SDS011;26812;42.662;23.352;2023-07-20T10:27:35;5.53;;;1.90;;
41061;SDS011;26812;42.662;23.352;2023-07-20T10:30:01;1.65;;;1.20;;
41061;SDS011;26812;42.662;23.352;2023-07-20T10:32:28;4.40;;;1.27;;
41061;SDS011;26812;42.662;23.352;2023-07-20T10:34:55;4.25;;;1.17;;
41061;SDS011;26812;42.662;23.352;2023-07-20T10:37:45;5.18;;;1.65;;
41061;SDS011;26812;42.662;23.352;2023-07-20T10:42:50;3.20;;;1.50;;
41061;SDS011;26812;42.662;23.352;2023-07-20T10:45:16;4.47;;;1.65;;
41061;SDS011;26812;42.662;23.352;2023-07-20T10:47:45;4.22;;;1.30;;
41061;SDS011;26812;42.662;23.352;2023-07-20T10:50:11;1.55;;;1.00;;
41061;SDS011;26812;42.662;23.352;2023-07-20T10:52:37;3.13;;;1.15;;
41061;SDS011;26812;42.662;23.352;2023-07-20T10:55:13;1.98;;;1.30;;
41061;SDS011;26812;42.662;23.352;2023-07-20T10:57:39;4.40;;;1.35;;
41061;SDS011;26812;42.662;23.352;2023-07-20T11:00:12;2.95;;;1.67;;
41061;SDS011;26812;42.662;23.352;2023-07-20T11:02:42;3.88;;;1.90;;
41061;SDS011;26812;42.662;23.352;2023-07-20T11:05:23;3.60;;;1.17;;
41061;SDS011;26812;42.662;23.352;2023-07-20T11:08:05;2.28;;;1.08;;
41061;SDS011;26812;42.662;23.352;2023-07-20T11:10:34;3.95;;;1.92;;
41061;SDS011;26812;42.662;23.352;2023-07-20T11:16:02;1.83;;;1.10;;
41061;SDS011;26812;42.662;23.352;2023-07-20T11:18:29;3.43;;;1.20;;
41061;SDS011;26812;42.662;23.352;2023-07-20T11:20:56;4.22;;;1.65;;
41061;SDS011;26812;42.662;23.352;2023-07-20T11:23:21;3.40;;;1.27;;
41061;SDS011;26812;42.662;23.352;2023-07-20T11:25:47;3.42;;;1.52;;
41061;SDS011;26812;42.662;23.352;2023-07-20T11:28:12;4.95;;;1.52;;
41061;SDS011;26812;42.662;23.352;2023-07-20T11:30:38;4.50;;;1.65;;
41061;SDS011;26812;42.662;23.352;2023-07-20T11:33:04;2.72;;;1.20;;
41061;SDS011;26812;42.662;23.352;2023-07-20T11:35:45;5.45;;;1.80;;
41061;SDS011;26812;42.662;23.352;2023-07-20T11:38:12;3.03;;;1.45;;
41061;SDS011;26812;42.662;23.352;2023-07-20T11:40:47;3.58;;;1.85;;
41061;SDS011;26812;42.662;23.352;2023-07-20T11:43:12;3.13;;;1.23;;
41061;SDS011;26812;42.662;23.352;2023-07-20T11:45:39;5.40;;;2.28;;
41061;SDS011;26812;42.662;23.352;2023-07-20T11:48:04;5.00;;;2.15;;
41061;SDS011;26812;42.662;23.352;2023-07-20T11:50:30;4.10;;;1.80;;
41061;SDS011;26812;42.662;23.352;2023-07-20T11:53:02;2.28;;;1.80;;
41061;SDS011;26812;42.662;23.352;2023-07-20T11:55:27;3.03;;;1.83;;
41061;SDS011;26812;42.662;23.352;2023-07-20T11:58:05;3.42;;;2.00;;
41061;SDS011;26812;42.662;23.352;2023-07-20T12:00:32;4.38;;;1.85;;
41061;SDS011;26812;42.662;23.352;2023-07-20T12:02:58;2.72;;;1.70;;
41061;SDS011;26812;42.662;23.352;2023-07-20T12:05:24;4.45;;;2.30;;
41061;SDS011;26812;42.662;23.352;2023-07-20T12:07:49;3.10;;;1.92;;
41061;SDS011;26812;42.662;23.352;2023-07-20T12:10:17;4.50;;;2.28;;
41061;SDS011;26812;42.662;23.352;2023-07-20T12:12:49;3.95;;;2.10;;
41061;SDS011;26812;42.662;23.352;2023-07-20T12:15:25;3.45;;;2.65;;
41061;SDS011;26812;42.662;23.352;2023-07-20T12:18:01;2.90;;;2.30;;
41061;SDS011;26812;42.662;23.352;2023-07-20T12:22:52;4.28;;;2.15;;
41061;SDS011;26812;42.662;23.352;2023-07-20T12:25:19;2.42;;;1.90;;
41061;SDS011;26812;42.662;23.352;2023-07-20T12:27:45;4.25;;;2.42;;
41061;SDS011;26812;42.662;23.352;2023-07-20T12:30:12;6.55;;;2.58;;
41061;SDS011;26812;42.662;23.352;2023-07-20T12:32:38;4.68;;;2.50;;
41061;SDS011;26812;42.662;23.352;2023-07-20T12:35:04;4.18;;;2.20;;
41061;SDS011;26812;42.662;23.352;2023-07-20T12:37:29;5.57;;;2.08;;
41061;SDS011;26812;42.662;23.352;2023-07-20T12:39:55;6.45;;;2.70;;
41061;SDS011;26812;42.662;23.352;2023-07-20T12:42:20;3.85;;;2.08;;
41061;SDS011;26812;42.662;23.352;2023-07-20T12:44:46;2.88;;;1.38;;
41061;SDS011;26812;42.662;23.352;2023-07-20T12:47:12;1.95;;;1.55;;
41061;SDS011;26812;42.662;23.352;2023-07-20T12:49:37;4.05;;;1.63;;
41061;SDS011;26812;42.662;23.352;2023-07-20T12:52:04;3.40;;;1.80;;
41061;SDS011;26812;42.662;23.352;2023-07-20T12:54:30;2.58;;;1.50;;
41061;SDS011;26812;42.662;23.352;2023-07-20T12:56:55;3.67;;;1.58;;
41061;SDS011;26812;42.662;23.352;2023-07-20T12:59:20;2.50;;;1.55;;
41061;SDS011;26812;42.662;23.352;2023-07-20T13:01:46;3.67;;;1.55;;
41061;SDS011;26812;42.662;23.352;2023-07-20T13:04:11;5.70;;;1.65;;
41061;SDS011;26812;42.662;23.352;2023-07-20T13:06:37;4.75;;;1.88;;
41061;SDS011;26812;42.662;23.352;2023-07-20T13:09:02;4.03;;;1.70;;
41061;SDS011;26812;42.662;23.352;2023-07-20T13:11:28;4.32;;;1.50;;
41061;SDS011;26812;42.662;23.352;2023-07-20T13:13:53;2.88;;;1.38;;
41061;SDS011;26812;42.662;23.352;2023-07-20T13:16:19;5.75;;;1.67;;
41061;SDS011;26812;42.662;23.352;2023-07-20T13:18:44;2.55;;;1.52;;
41061;SDS011;26812;42.662;23.352;2023-07-20T13:21:09;4.75;;;2.33;;
41061;SDS011;26812;42.662;23.352;2023-07-20T13:23:36;1.73;;;1.20;;
41061;SDS011;26812;42.662;23.352;2023-07-20T13:26:02;4.75;;;1.60;;
41061;SDS011;26812;42.662;23.352;2023-07-20T13:28:30;5.07;;;1.52;;
41061;SDS011;26812;42.662;23.352;2023-07-20T13:30:55;3.58;;;1.50;;
41061;SDS011;26812;42.662;23.352;2023-07-20T13:33:21;5.45;;;1.52;;
41061;SDS011;26812;42.662;23.352;2023-07-20T13:35:46;3.15;;;1.30;;
41061;SDS011;26812;42.662;23.352;2023-07-20T13:38:12;3.33;;;1.38;;
41061;SDS011;26812;42.662;23.352;2023-07-20T13:40:37;5.90;;;1.52;;
41061;SDS011;26812;42.662;23.352;2023-07-20T13:43:03;3.33;;;1.27;;
41061;SDS011;26812;42.662;23.352;2023-07-20T13:45:28;3.92;;;1.40;;
41061;SDS011;26812;42.662;23.352;2023-07-20T13:47:53;2.97;;;1.23;;
41061;SDS011;26812;42.662;23.352;2023-07-20T13:50:19;4.35;;;1.30;;
41061;SDS011;26812;42.662;23.352;2023-07-20T13:52:44;3.90;;;1.65;;
41061;SDS011;26812;42.662;23.352;2023-07-20T13:55:09;4.40;;;1.70;;
41061;SDS011;26812;42.662;23.352;2023-07-20T13:57:35;4.30;;;1.88;;
41061;SDS011;26812;42.662;23.352;2023-07-20T14:00:00;6.82;;;2.47;;
41061;SDS011;26812;42.662;23.352;2023-07-20T14:02:27;3.15;;;1.58;;
41061;SDS011;26812;42.662;23.352;2023-07-20T14:04:52;2.75;;;1.50;;
41061;SDS011;26812;42.662;23.352;2023-07-20T14:07:20;3.67;;;1.38;;
41061;SDS011;26812;42.662;23.352;2023-07-20T14:09:46;2.95;;;1.25;;
41061;SDS011;26812;42.662;23.352;2023-07-20T14:12:12;2.63;;;1.20;;
41061;SDS011;26812;42.662;23.352;2023-07-20T14:14:39;5.47;;;1.40;;
41061;SDS011;26812;42.662;23.352;2023-07-20T14:17:06;5.28;;;1.35;;
41061;SDS011;26812;42.662;23.352;2023-07-20T14:19:31;3.30;;;1.30;;
41061;SDS011;26812;42.662;23.352;2023-07-20T14:22:03;3.97;;;1.25;;
41061;SDS011;26812;42.662;23.352;2023-07-20T14:24:29;1.85;;;1.15;;
41061;SDS011;26812;42.662;23.352;2023-07-20T14:26:54;2.83;;;1.50;;
41061;SDS011;26812;42.662;23.352;2023-07-20T14:29:20;2.05;;;1.20;;
41061;SDS011;26812;42.662;23.352;2023-07-20T14:31:46;3.95;;;1.52;;
41061;SDS011;26812;42.662;23.352;2023-07-20T14:34:15;4.57;;;1.65;;
41061;SDS011;26812;42.662;23.352;2023-07-20T14:36:44;2.90;;;1.60;;
41061;SDS011;26812;42.662;23.352;2023-07-20T14:39:10;3.20;;;1.38;;
41061;SDS011;26812;42.662;23.352;2023-07-20T14:41:35;5.32;;;2.28;;
41061;SDS011;26812;42.662;23.352;2023-07-20T14:44:01;2.22;;;1.30;;
41061;SDS011;26812;42.662;23.352;2023-07-20T14:46:27;2.92;;;1.25;;
41061;SDS011;26812;42.662;23.352;2023-07-20T14:48:52;5.65;;;1.80;;
41061;SDS011;26812;42.662;23.352;2023-07-20T14:51:17;2.42;;;1.10;;